Sidney, MT

9:03 PM MDT on October 24, 2014 (GMT -0600)
Sidney-Richland Municipal | Change Station
CLOSE
Current Station
Airport
Location: Sidney-Richland,
Elevation: 1985 ft
Nearby Weather Stations

Elev 1985 ft 47.71 °N, 104.19 °W | Updated 8 minutes ago

Clear
Clear
48 °F
Feels Like 48 °F
N
0
Wind Variable Wind from North

Today
High -- | Low -- °F
--% Chance of Precip.
Yesterday
High -- | Low -- °F
Precip. -- in
7:28 AM 5:51 PM
New Moon, 2% visible
Pressure 30.08 in
Visibility 10.0 miles
Clouds Clear
Dew Point 28 °F
Humidity 46%
Rainfall 0.00 in
Snow Depth Not available.
UV 0 out of 12
Pollen 2.30 out of 12
Air Quality Not available.
Flu Activity No Activity
METAR KSDY 250255Z AUTO 00000KT 10SM CLR 09/M02 A3008 RMK AO1 52017

More Conditions Fewer Conditions

Pressure 30.08 in
Visibility 10.0 miles
Clouds Clear
Dew Point 28 °F
Humidity 46%
Rainfall 0.00 in
Snow Depth Not available.
UV 0 out of 12
Pollen 2.30 out of 12
Air Quality Not available.
Flu Activity No Activity
METAR KSDY 250255Z AUTO 00000KT 10SM CLR 09/M02 A3008 RMK AO1 52017

More Conditions Fewer Conditions

10-Day Weather Forecast

Almanac

Astronomy

Oct. 24, 2014 Rise Set
Actual Time 7:28 AM MDT 5:51 PM MDT
Civil Twilight 6:57 AM MDT 6:23 PM MDT
Nautical Twilight 6:21 AM MDT 6:59 PM MDT
Astronomical Twilight 5:45 AM MDT 7:35 PM MDT
Moon 8:12 AM MDT (10/24) 6:29 PM MDT (10/24)
Length of Visible Light 11h 26m
Length of Day
10h 22m
Tomorrow will be 3m 13s shorter.
New Moon, 2% of the Moon is Illuminated
Today
New Moon
Oct 30
First Quarter
Nov 6
Full
Nov 14
Last Quarter
Nov 22
New

Today's Extremes

State Highs State Lows

Community

WunderPhotos

Upload Photos

1,764,762 photos uploaded!

Nearby

Snow Depth

Station Depth Elevation
Crystal Lake 1 in 6050 ft
Burnt Mountain 0 in 5880 ft
Spur Park 0 in 8100 ft
Deadman Creek 0 in 6450 ft
South Fork Shields 1 in 8100 ft

Earthquake Activity

City Distance Mag. Time & Date
No recent earthquake activity has been reported nearby.
Minimum magnitude displayed is 2.5.

Coastal Water Temperatures

Place Temperature
No Stations Reporting

Nearby Weather Stations